Afonso Cunha, Brazil
Current Conditions -  °F | °C
As of 11:00 AM on Monday 24 Nov 2014 (Local Time) from SBTE Reporting Station
Clear Clear  
Wind Chill: 93°   Ceiling: Unl
Heat Index: 93°   Visibility: 6mi
Dew Point: 59°   Wind: 6mph
Humidity: 32%   Direction: 80°E
Pressure: 29.88"   Gusts: NA
Location:  4.13°S, 43.32°W
Report Text: SBTE 241400Z 08005KT CAVOK 34/15 Q1012
Loading
Personal Weather Stations






























Interactive Weather Map New forecast layout! Learn more

10-Day Weather Forecast

Advertisements
Track Severe Weather on mobile